KFFA

Details ICAO KFFA (FFA)
Name First Flight
Region United States
Timezone America/New_York (UTC-5.0)
Plans Departing 6
Arriving 32
Stats Elevation 13 ft / 4 m (AMSL)
Location 36.020044° -75.669806°
Runways 2
Magnetic Variation 11.035° W
Sunrise 2017-12-16 12:08:11 UTC / 2017-12-16 07:08:11 Local
Sunset 2017-12-16 21:51:24 UTC / 2017-12-16 16:51:24 Local
Advertisement - Login to hide

Runways

ID Width Length Bearing (true) Bearing (mag) Surface Threshold Offset Overrun Length
01R 20 ft / 6 m 867 ft / 264 m 8.00° 19.03° Asphalt 0 ft / 0 m 0 ft / 0 m
02 60 ft / 18 m 3,006 ft / 916 m 23.89° 34.92° Asphalt 0 ft / 0 m 0 ft / 0 m
19L 20 ft / 6 m 867 ft / 264 m 188.00° 199.03° Asphalt 0 ft / 0 m 0 ft / 0 m
20 60 ft / 18 m 3,006 ft / 916 m 203.89° 214.92° Asphalt 0 ft / 0 m 0 ft / 0 m

Map

Weather


0- 5 10 15 20 25 30 35+ Temperature / ° C

Clouds and Precipitation
Forecast for 2017-12-16 18:00 UTC. Updated 2 hours ago

Ground ~20,000 ft ~40,000 ft Winds

METAR

KFFA 161840Z AUTO 00000KT 10SM CLR 06/M06 A3020 RMK AO2 T00611064

TAF

Not found

Frequencies

Unicom 122.90 MHz CTAF
Warning: Do not use this data for real-world aviation or navigation. No guarantee of current accuracy is given.